sensor_id;sensor_type;location;lat;lon;timestamp;P1;durP1;ratioP1;P2;durP2;ratioP2
22579;SDS011;11456;47.030;15.396;2023-12-29T00:01:30;30.70;;;16.38;;
22579;SDS011;11456;47.030;15.396;2023-12-29T00:03:58;27.05;;;15.50;;
22579;SDS011;11456;47.030;15.396;2023-12-29T00:06:25;28.65;;;14.93;;
22579;SDS011;11456;47.030;15.396;2023-12-29T00:08:52;29.80;;;15.80;;
22579;SDS011;11456;47.030;15.396;2023-12-29T00:11:19;31.83;;;14.98;;
22579;SDS011;11456;47.030;15.396;2023-12-29T00:13:46;35.33;;;14.93;;
22579;SDS011;11456;47.030;15.396;2023-12-29T00:16:14;28.80;;;14.82;;
22579;SDS011;11456;47.030;15.396;2023-12-29T00:18:41;28.70;;;15.27;;
22579;SDS011;11456;47.030;15.396;2023-12-29T00:21:08;29.27;;;15.65;;
22579;SDS011;11456;47.030;15.396;2023-12-29T00:23:35;30.77;;;14.77;;
22579;SDS011;11456;47.030;15.396;2023-12-29T00:26:02;28.60;;;15.55;;
22579;SDS011;11456;47.030;15.396;2023-12-29T00:28:29;31.38;;;14.73;;
22579;SDS011;11456;47.030;15.396;2023-12-29T00:30:55;30.13;;;14.68;;
22579;SDS011;11456;47.030;15.396;2023-12-29T00:33:29;30.42;;;14.55;;
22579;SDS011;11456;47.030;15.396;2023-12-29T00:35:57;36.83;;;14.73;;
22579;SDS011;11456;47.030;15.396;2023-12-29T00:38:27;30.00;;;14.90;;
22579;SDS011;11456;47.030;15.396;2023-12-29T00:40:54;28.77;;;14.75;;
22579;SDS011;11456;47.030;15.396;2023-12-29T00:43:21;27.58;;;13.98;;
22579;SDS011;11456;47.030;15.396;2023-12-29T00:45:49;31.88;;;14.50;;
22579;SDS011;11456;47.030;15.396;2023-12-29T00:48:16;30.00;;;14.20;;
22579;SDS011;11456;47.030;15.396;2023-12-29T00:50:43;30.35;;;14.98;;
22579;SDS011;11456;47.030;15.396;2023-12-29T00:53:09;28.98;;;14.18;;
22579;SDS011;11456;47.030;15.396;2023-12-29T00:55:36;31.35;;;14.02;;
22579;SDS011;11456;47.030;15.396;2023-12-29T00:58:03;29.38;;;13.75;;
22579;SDS011;11456;47.030;15.396;2023-12-29T01:00:30;30.08;;;14.60;;
22579;SDS011;11456;47.030;15.396;2023-12-29T01:02:57;27.08;;;14.77;;
22579;SDS011;11456;47.030;15.396;2023-12-29T01:05:23;28.48;;;15.07;;
22579;SDS011;11456;47.030;15.396;2023-12-29T01:07:50;30.98;;;13.57;;
22579;SDS011;11456;47.030;15.396;2023-12-29T01:10:17;30.80;;;14.70;;
22579;SDS011;11456;47.030;15.396;2023-12-29T01:12:44;28.85;;;15.20;;
22579;SDS011;11456;47.030;15.396;2023-12-29T01:15:11;26.42;;;14.00;;
22579;SDS011;11456;47.030;15.396;2023-12-29T01:17:37;30.00;;;14.77;;
22579;SDS011;11456;47.030;15.396;2023-12-29T01:20:04;28.48;;;14.63;;
22579;SDS011;11456;47.030;15.396;2023-12-29T01:22:31;27.85;;;14.68;;
22579;SDS011;11456;47.030;15.396;2023-12-29T01:24:59;27.55;;;14.60;;
22579;SDS011;11456;47.030;15.396;2023-12-29T01:27:26;29.60;;;14.63;;
22579;SDS011;11456;47.030;15.396;2023-12-29T01:29:53;28.52;;;15.13;;
22579;SDS011;11456;47.030;15.396;2023-12-29T01:32:20;28.48;;;14.48;;
22579;SDS011;11456;47.030;15.396;2023-12-29T01:34:48;25.52;;;14.25;;
22579;SDS011;11456;47.030;15.396;2023-12-29T01:37:15;27.13;;;13.60;;
22579;SDS011;11456;47.030;15.396;2023-12-29T01:39:42;25.23;;;13.02;;
22579;SDS011;11456;47.030;15.396;2023-12-29T01:42:09;25.63;;;12.38;;
22579;SDS011;11456;47.030;15.396;2023-12-29T01:44:37;20.90;;;12.07;;
22579;SDS011;11456;47.030;15.396;2023-12-29T01:47:10;21.85;;;12.10;;
22579;SDS011;11456;47.030;15.396;2023-12-29T01:49:43;24.20;;;12.88;;
22579;SDS011;11456;47.030;15.396;2023-12-29T01:52:13;25.15;;;12.57;;
22579;SDS011;11456;47.030;15.396;2023-12-29T01:54:44;23.77;;;11.70;;
22579;SDS011;11456;47.030;15.396;2023-12-29T01:57:14;23.83;;;11.45;;
22579;SDS011;11456;47.030;15.396;2023-12-29T01:59:41;21.02;;;11.38;;
22579;SDS011;11456;47.030;15.396;2023-12-29T02:02:10;20.10;;;11.90;;
22579;SDS011;11456;47.030;15.396;2023-12-29T02:04:37;24.45;;;12.63;;
22579;SDS011;11456;47.030;15.396;2023-12-29T02:07:06;23.02;;;12.30;;
22579;SDS011;11456;47.030;15.396;2023-12-29T02:09:34;27.48;;;12.25;;
22579;SDS011;11456;47.030;15.396;2023-12-29T02:12:01;26.80;;;12.88;;
22579;SDS011;11456;47.030;15.396;2023-12-29T02:14:28;26.05;;;12.93;;
22579;SDS011;11456;47.030;15.396;2023-12-29T02:16:58;31.58;;;12.68;;
22579;SDS011;11456;47.030;15.396;2023-12-29T02:22:06;23.85;;;12.27;;
22579;SDS011;11456;47.030;15.396;2023-12-29T02:24:36;31.17;;;13.75;;
22579;SDS011;11456;47.030;15.396;2023-12-29T02:32:35;26.92;;;12.93;;
22579;SDS011;11456;47.030;15.396;2023-12-29T02:35:05;28.27;;;12.95;;
22579;SDS011;11456;47.030;15.396;2023-12-29T02:37:35;26.92;;;13.40;;
22579;SDS011;11456;47.030;15.396;2023-12-29T02:40:03;28.52;;;12.98;;
22579;SDS011;11456;47.030;15.396;2023-12-29T02:42:30;27.00;;;13.13;;
22579;SDS011;11456;47.030;15.396;2023-12-29T02:44:57;26.75;;;11.93;;
22579;SDS011;11456;47.030;15.396;2023-12-29T02:47:24;27.10;;;12.48;;
22579;SDS011;11456;47.030;15.396;2023-12-29T02:49:51;26.20;;;11.85;;
22579;SDS011;11456;47.030;15.396;2023-12-29T02:52:18;27.83;;;11.57;;
22579;SDS011;11456;47.030;15.396;2023-12-29T02:54:44;33.20;;;13.80;;
22579;SDS011;11456;47.030;15.396;2023-12-29T02:57:11;23.13;;;12.43;;
22579;SDS011;11456;47.030;15.396;2023-12-29T02:59:38;31.27;;;12.52;;
22579;SDS011;11456;47.030;15.396;2023-12-29T03:02:05;29.08;;;13.50;;
22579;SDS011;11456;47.030;15.396;2023-12-29T03:04:32;25.25;;;12.80;;
22579;SDS011;11456;47.030;15.396;2023-12-29T03:06:59;26.50;;;12.60;;
22579;SDS011;11456;47.030;15.396;2023-12-29T03:09:25;26.65;;;12.05;;
22579;SDS011;11456;47.030;15.396;2023-12-29T03:11:52;27.08;;;12.70;;
22579;SDS011;11456;47.030;15.396;2023-12-29T03:14:19;28.95;;;13.70;;
22579;SDS011;11456;47.030;15.396;2023-12-29T03:16:45;29.30;;;13.75;;
22579;SDS011;11456;47.030;15.396;2023-12-29T03:19:12;29.08;;;13.35;;
22579;SDS011;11456;47.030;15.396;2023-12-29T03:21:39;30.58;;;14.27;;
22579;SDS011;11456;47.030;15.396;2023-12-29T03:24:06;33.65;;;13.60;;
22579;SDS011;11456;47.030;15.396;2023-12-29T03:26:32;34.60;;;15.25;;
22579;SDS011;11456;47.030;15.396;2023-12-29T03:28:59;33.72;;;15.05;;
22579;SDS011;11456;47.030;15.396;2023-12-29T03:31:26;31.70;;;14.50;;
22579;SDS011;11456;47.030;15.396;2023-12-29T03:33:53;30.10;;;13.90;;
22579;SDS011;11456;47.030;15.396;2023-12-29T03:36:19;32.45;;;14.68;;
22579;SDS011;11456;47.030;15.396;2023-12-29T03:38:46;28.52;;;13.90;;
22579;SDS011;11456;47.030;15.396;2023-12-29T03:41:13;26.90;;;13.88;;
22579;SDS011;11456;47.030;15.396;2023-12-29T03:43:40;29.52;;;13.00;;
22579;SDS011;11456;47.030;15.396;2023-12-29T03:48:43;27.42;;;12.50;;
22579;SDS011;11456;47.030;15.396;2023-12-29T03:51:11;28.33;;;13.32;;
22579;SDS011;11456;47.030;15.396;2023-12-29T03:53:38;30.90;;;13.00;;
22579;SDS011;11456;47.030;15.396;2023-12-29T03:56:05;27.10;;;12.27;;
22579;SDS011;11456;47.030;15.396;2023-12-29T03:58:35;25.73;;;12.43;;
22579;SDS011;11456;47.030;15.396;2023-12-29T04:01:02;26.52;;;12.57;;
22579;SDS011;11456;47.030;15.396;2023-12-29T04:03:29;27.58;;;12.77;;
22579;SDS011;11456;47.030;15.396;2023-12-29T04:05:56;28.73;;;13.40;;
22579;SDS011;11456;47.030;15.396;2023-12-29T04:08:22;29.95;;;13.45;;
22579;SDS011;11456;47.030;15.396;2023-12-29T04:10:49;26.65;;;12.73;;
22579;SDS011;11456;47.030;15.396;2023-12-29T04:13:16;25.60;;;11.85;;
22579;SDS011;11456;47.030;15.396;2023-12-29T04:15:42;21.95;;;11.95;;
22579;SDS011;11456;47.030;15.396;2023-12-29T04:18:09;27.90;;;12.25;;
22579;SDS011;11456;47.030;15.396;2023-12-29T04:20:36;26.52;;;12.32;;
22579;SDS011;11456;47.030;15.396;2023-12-29T04:23:04;26.80;;;12.02;;
22579;SDS011;11456;47.030;15.396;2023-12-29T04:25:33;23.48;;;11.75;;
22579;SDS011;11456;47.030;15.396;2023-12-29T04:28:02;27.35;;;11.95;;
22579;SDS011;11456;47.030;15.396;2023-12-29T04:30:29;22.20;;;11.48;;
22579;SDS011;11456;47.030;15.396;2023-12-29T04:32:56;24.88;;;11.88;;
22579;SDS011;11456;47.030;15.396;2023-12-29T04:35:23;24.00;;;11.82;;
22579;SDS011;11456;47.030;15.396;2023-12-29T04:37:49;23.30;;;11.18;;
22579;SDS011;11456;47.030;15.396;2023-12-29T04:40:17;25.30;;;12.18;;
22579;SDS011;11456;47.030;15.396;2023-12-29T04:42:44;25.20;;;11.70;;
22579;SDS011;11456;47.030;15.396;2023-12-29T04:45:11;28.08;;;12.70;;
22579;SDS011;11456;47.030;15.396;2023-12-29T04:47:38;27.88;;;12.50;;
22579;SDS011;11456;47.030;15.396;2023-12-29T04:50:05;26.90;;;12.27;;
22579;SDS011;11456;47.030;15.396;2023-12-29T04:52:32;25.60;;;12.27;;
22579;SDS011;11456;47.030;15.396;2023-12-29T04:54:59;23.83;;;12.40;;
22579;SDS011;11456;47.030;15.396;2023-12-29T04:57:26;25.35;;;12.52;;
22579;SDS011;11456;47.030;15.396;2023-12-29T04:59:52;25.42;;;12.40;;
22579;SDS011;11456;47.030;15.396;2023-12-29T05:02:19;25.98;;;13.13;;
22579;SDS011;11456;47.030;15.396;2023-12-29T05:04:46;26.98;;;13.35;;
22579;SDS011;11456;47.030;15.396;2023-12-29T05:07:13;25.70;;;12.68;;
22579;SDS011;11456;47.030;15.396;2023-12-29T05:09:39;26.70;;;12.57;;
22579;SDS011;11456;47.030;15.396;2023-12-29T05:12:06;24.95;;;12.13;;
22579;SDS011;11456;47.030;15.396;2023-12-29T05:14:33;24.35;;;12.80;;
22579;SDS011;11456;47.030;15.396;2023-12-29T05:16:59;23.60;;;12.68;;
22579;SDS011;11456;47.030;15.396;2023-12-29T05:19:26;27.85;;;12.95;;
22579;SDS011;11456;47.030;15.396;2023-12-29T05:21:53;25.52;;;13.68;;
22579;SDS011;11456;47.030;15.396;2023-12-29T05:24:20;26.77;;;14.73;;
22579;SDS011;11456;47.030;15.396;2023-12-29T05:26:47;32.67;;;16.23;;
22579;SDS011;11456;47.030;15.396;2023-12-29T05:29:13;33.78;;;15.27;;
22579;SDS011;11456;47.030;15.396;2023-12-29T05:31:41;31.15;;;16.33;;
22579;SDS011;11456;47.030;15.396;2023-12-29T05:34:08;64.53;;;29.95;;
22579;SDS011;11456;47.030;15.396;2023-12-29T05:36:36;55.30;;;28.50;;
22579;SDS011;11456;47.030;15.396;2023-12-29T05:39:03;53.17;;;25.92;;
22579;SDS011;11456;47.030;15.396;2023-12-29T05:41:30;44.92;;;21.55;;
22579;SDS011;11456;47.030;15.396;2023-12-29T05:43:57;24.83;;;13.20;;
22579;SDS011;11456;47.030;15.396;2023-12-29T05:46:27;20.95;;;10.82;;
22579;SDS011;11456;47.030;15.396;2023-12-29T05:48:54;24.33;;;11.63;;
22579;SDS011;11456;47.030;15.396;2023-12-29T05:51:21;25.25;;;11.43;;
22579;SDS011;11456;47.030;15.396;2023-12-29T05:53:48;20.73;;;12.68;;
22579;SDS011;11456;47.030;15.396;2023-12-29T05:56:14;31.13;;;13.65;;
22579;SDS011;11456;47.030;15.396;2023-12-29T05:58:41;23.55;;;12.82;;
22579;SDS011;11456;47.030;15.396;2023-12-29T06:01:11;23.20;;;12.85;;
22579;SDS011;11456;47.030;15.396;2023-12-29T06:03:38;24.70;;;12.70;;
22579;SDS011;11456;47.030;15.396;2023-12-29T06:06:05;20.20;;;10.65;;
22579;SDS011;11456;47.030;15.396;2023-12-29T06:08:33;22.23;;;10.88;;
22579;SDS011;11456;47.030;15.396;2023-12-29T06:10:59;19.58;;;10.00;;
22579;SDS011;11456;47.030;15.396;2023-12-29T06:13:27;15.43;;;9.18;;
22579;SDS011;11456;47.030;15.396;2023-12-29T06:15:54;18.95;;;9.82;;
22579;SDS011;11456;47.030;15.396;2023-12-29T06:18:21;21.42;;;10.18;;
22579;SDS011;11456;47.030;15.396;2023-12-29T06:20:48;17.10;;;9.60;;
22579;SDS011;11456;47.030;15.396;2023-12-29T06:23:14;23.15;;;10.23;;
22579;SDS011;11456;47.030;15.396;2023-12-29T06:25:43;24.20;;;10.20;;
22579;SDS011;11456;47.030;15.396;2023-12-29T06:28:10;21.33;;;10.05;;
22579;SDS011;11456;47.030;15.396;2023-12-29T06:30:37;19.15;;;10.73;;
22579;SDS011;11456;47.030;15.396;2023-12-29T06:33:04;27.55;;;13.38;;
22579;SDS011;11456;47.030;15.396;2023-12-29T06:35:32;25.23;;;12.95;;
22579;SDS011;11456;47.030;15.396;2023-12-29T06:37:58;24.30;;;12.45;;
22579;SDS011;11456;47.030;15.396;2023-12-29T06:40:25;28.10;;;13.90;;
22579;SDS011;11456;47.030;15.396;2023-12-29T06:42:53;24.20;;;13.10;;
22579;SDS011;11456;47.030;15.396;2023-12-29T06:45:19;27.40;;;12.98;;
22579;SDS011;11456;47.030;15.396;2023-12-29T06:47:46;30.90;;;13.80;;
22579;SDS011;11456;47.030;15.396;2023-12-29T06:50:13;27.88;;;13.00;;
22579;SDS011;11456;47.030;15.396;2023-12-29T06:52:40;26.90;;;13.55;;
22579;SDS011;11456;47.030;15.396;2023-12-29T06:55:06;32.03;;;13.73;;
22579;SDS011;11456;47.030;15.396;2023-12-29T06:57:34;30.45;;;15.43;;
22579;SDS011;11456;47.030;15.396;2023-12-29T07:00:01;26.90;;;13.57;;
22579;SDS011;11456;47.030;15.396;2023-12-29T07:02:29;25.52;;;14.20;;
22579;SDS011;11456;47.030;15.396;2023-12-29T07:04:57;36.67;;;14.95;;
22579;SDS011;11456;47.030;15.396;2023-12-29T07:07:24;31.00;;;14.68;;
22579;SDS011;11456;47.030;15.396;2023-12-29T07:09:51;26.23;;;14.32;;
22579;SDS011;11456;47.030;15.396;2023-12-29T07:12:17;33.78;;;15.40;;
22579;SDS011;11456;47.030;15.396;2023-12-29T07:14:44;30.85;;;15.02;;
22579;SDS011;11456;47.030;15.396;2023-12-29T07:17:11;31.38;;;15.07;;
22579;SDS011;11456;47.030;15.396;2023-12-29T07:19:38;30.85;;;15.23;;
22579;SDS011;11456;47.030;15.396;2023-12-29T07:22:05;33.53;;;14.73;;
22579;SDS011;11456;47.030;15.396;2023-12-29T07:24:35;33.90;;;16.27;;
22579;SDS011;11456;47.030;15.396;2023-12-29T07:27:03;60.38;;;23.73;;
22579;SDS011;11456;47.030;15.396;2023-12-29T07:29:30;64.70;;;27.70;;
22579;SDS011;11456;47.030;15.396;2023-12-29T07:31:57;44.15;;;20.73;;
22579;SDS011;11456;47.030;15.396;2023-12-29T07:34:25;44.35;;;19.92;;
22579;SDS011;11456;47.030;15.396;2023-12-29T07:36:52;59.55;;;26.00;;
22579;SDS011;11456;47.030;15.396;2023-12-29T07:39:19;51.40;;;24.15;;
22579;SDS011;11456;47.030;15.396;2023-12-29T07:41:46;40.53;;;18.45;;
22579;SDS011;11456;47.030;15.396;2023-12-29T07:44:15;37.08;;;17.25;;
22579;SDS011;11456;47.030;15.396;2023-12-29T07:46:42;40.28;;;19.20;;
22579;SDS011;11456;47.030;15.396;2023-12-29T07:49:09;40.60;;;18.48;;
22579;SDS011;11456;47.030;15.396;2023-12-29T07:51:42;38.80;;;18.00;;
22579;SDS011;11456;47.030;15.396;2023-12-29T07:54:13;73.78;;;28.83;;
22579;SDS011;11456;47.030;15.396;2023-12-29T07:56:40;52.08;;;23.13;;
22579;SDS011;11456;47.030;15.396;2023-12-29T07:59:06;60.97;;;26.15;;
22579;SDS011;11456;47.030;15.396;2023-12-29T08:01:33;41.67;;;19.73;;
22579;SDS011;11456;47.030;15.396;2023-12-29T08:04:00;53.42;;;23.75;;
22579;SDS011;11456;47.030;15.396;2023-12-29T08:06:27;52.05;;;18.13;;
22579;SDS011;11456;47.030;15.396;2023-12-29T08:08:54;41.20;;;18.20;;
22579;SDS011;11456;47.030;15.396;2023-12-29T08:11:20;33.15;;;16.27;;
22579;SDS011;11456;47.030;15.396;2023-12-29T08:13:47;26.40;;;14.02;;
22579;SDS011;11456;47.030;15.396;2023-12-29T08:16:15;27.63;;;15.10;;
22579;SDS011;11456;47.030;15.396;2023-12-29T08:18:46;29.52;;;14.25;;
22579;SDS011;11456;47.030;15.396;2023-12-29T08:21:17;23.60;;;13.13;;
22579;SDS011;11456;47.030;15.396;2023-12-29T08:23:47;28.05;;;14.20;;
22579;SDS011;11456;47.030;15.396;2023-12-29T08:26:15;27.25;;;14.57;;
22579;SDS011;11456;47.030;15.396;2023-12-29T08:28:42;30.13;;;15.02;;
22579;SDS011;11456;47.030;15.396;2023-12-29T08:31:09;33.63;;;16.35;;
22579;SDS011;11456;47.030;15.396;2023-12-29T08:33:36;32.40;;;15.40;;
22579;SDS011;11456;47.030;15.396;2023-12-29T08:36:03;28.88;;;15.00;;
22579;SDS011;11456;47.030;15.396;2023-12-29T08:38:30;29.17;;;15.00;;
22579;SDS011;11456;47.030;15.396;2023-12-29T08:40:59;30.55;;;15.95;;
22579;SDS011;11456;47.030;15.396;2023-12-29T08:43:26;31.95;;;16.10;;
22579;SDS011;11456;47.030;15.396;2023-12-29T08:45:53;33.47;;;15.35;;
22579;SDS011;11456;47.030;15.396;2023-12-29T08:48:20;26.90;;;14.57;;
22579;SDS011;11456;47.030;15.396;2023-12-29T08:50:48;28.65;;;14.65;;
22579;SDS011;11456;47.030;15.396;2023-12-29T08:53:15;28.33;;;14.30;;
22579;SDS011;11456;47.030;15.396;2023-12-29T08:55:43;23.13;;;13.80;;
22579;SDS011;11456;47.030;15.396;2023-12-29T08:58:10;31.33;;;13.45;;
22579;SDS011;11456;47.030;15.396;2023-12-29T09:00:38;21.08;;;9.75;;
22579;SDS011;11456;47.030;15.396;2023-12-29T09:03:04;21.15;;;10.48;;
22579;SDS011;11456;47.030;15.396;2023-12-29T09:05:31;21.63;;;10.82;;
22579;SDS011;11456;47.030;15.396;2023-12-29T09:07:58;16.73;;;9.32;;
22579;SDS011;11456;47.030;15.396;2023-12-29T09:10:25;21.05;;;9.43;;
22579;SDS011;11456;47.030;15.396;2023-12-29T09:12:51;18.83;;;10.55;;
22579;SDS011;11456;47.030;15.396;2023-12-29T09:15:18;22.27;;;11.13;;
22579;SDS011;11456;47.030;15.396;2023-12-29T09:17:45;20.90;;;11.48;;
22579;SDS011;11456;47.030;15.396;2023-12-29T09:20:12;19.20;;;10.48;;
22579;SDS011;11456;47.030;15.396;2023-12-29T09:22:41;22.33;;;11.93;;
22579;SDS011;11456;47.030;15.396;2023-12-29T09:25:08;21.58;;;11.65;;
22579;SDS011;11456;47.030;15.396;2023-12-29T09:27:36;16.10;;;10.50;;
22579;SDS011;11456;47.030;15.396;2023-12-29T09:30:03;14.18;;;8.70;;
22579;SDS011;11456;47.030;15.396;2023-12-29T09:32:31;15.10;;;9.05;;
22579;SDS011;11456;47.030;15.396;2023-12-29T09:34:58;18.92;;;9.13;;
22579;SDS011;11456;47.030;15.396;2023-12-29T09:37:24;19.02;;;8.45;;
22579;SDS011;11456;47.030;15.396;2023-12-29T09:39:51;17.92;;;8.45;;
22579;SDS011;11456;47.030;15.396;2023-12-29T09:42:21;19.92;;;9.43;;
22579;SDS011;11456;47.030;15.396;2023-12-29T09:44:49;15.15;;;9.30;;
22579;SDS011;11456;47.030;15.396;2023-12-29T09:47:23;16.38;;;8.35;;
22579;SDS011;11456;47.030;15.396;2023-12-29T09:49:53;22.52;;;9.02;;
22579;SDS011;11456;47.030;15.396;2023-12-29T09:52:21;21.48;;;8.60;;
22579;SDS011;11456;47.030;15.396;2023-12-29T09:54:49;14.90;;;7.97;;
22579;SDS011;11456;47.030;15.396;2023-12-29T09:57:18;19.15;;;7.18;;
22579;SDS011;11456;47.030;15.396;2023-12-29T09:59:45;15.30;;;7.85;;
22579;SDS011;11456;47.030;15.396;2023-12-29T10:02:15;17.45;;;7.93;;
22579;SDS011;11456;47.030;15.396;2023-12-29T10:04:44;16.42;;;9.20;;
22579;SDS011;11456;47.030;15.396;2023-12-29T10:07:13;15.05;;;8.35;;
22579;SDS011;11456;47.030;15.396;2023-12-29T10:09:55;20.35;;;9.88;;
22579;SDS011;11456;47.030;15.396;2023-12-29T10:12:24;17.17;;;8.25;;
22579;SDS011;11456;47.030;15.396;2023-12-29T10:15:06;16.95;;;7.80;;
22579;SDS011;11456;47.030;15.396;2023-12-29T10:23:36;15.90;;;7.40;;
22579;SDS011;11456;47.030;15.396;2023-12-29T10:26:06;18.30;;;7.85;;
22579;SDS011;11456;47.030;15.396;2023-12-29T10:28:36;17.08;;;7.70;;
22579;SDS011;11456;47.030;15.396;2023-12-29T10:31:04;19.15;;;7.50;;
22579;SDS011;11456;47.030;15.396;2023-12-29T10:33:31;15.45;;;6.95;;
22579;SDS011;11456;47.030;15.396;2023-12-29T10:36:02;18.48;;;7.93;;
22579;SDS011;11456;47.030;15.396;2023-12-29T10:38:30;24.23;;;8.27;;
22579;SDS011;11456;47.030;15.396;2023-12-29T10:41:09;16.20;;;6.53;;
22579;SDS011;11456;47.030;15.396;2023-12-29T10:43:36;18.95;;;7.55;;
22579;SDS011;11456;47.030;15.396;2023-12-29T10:46:06;19.90;;;8.55;;
22579;SDS011;11456;47.030;15.396;2023-12-29T10:48:34;24.92;;;8.23;;
22579;SDS011;11456;47.030;15.396;2023-12-29T10:51:02;15.15;;;7.20;;
22579;SDS011;11456;47.030;15.396;2023-12-29T10:53:33;17.20;;;7.07;;
22579;SDS011;11456;47.030;15.396;2023-12-29T10:56:16;16.70;;;7.75;;
22579;SDS011;11456;47.030;15.396;2023-12-29T10:58:46;18.58;;;7.78;;
22579;SDS011;11456;47.030;15.396;2023-12-29T11:01:23;16.92;;;7.95;;
22579;SDS011;11456;47.030;15.396;2023-12-29T11:03:58;18.73;;;8.10;;
22579;SDS011;11456;47.030;15.396;2023-12-29T11:06:43;23.10;;;8.48;;
22579;SDS011;11456;47.030;15.396;2023-12-29T11:09:14;12.90;;;7.72;;
22579;SDS011;11456;47.030;15.396;2023-12-29T11:11:41;19.77;;;8.45;;
22579;SDS011;11456;47.030;15.396;2023-12-29T11:14:09;22.90;;;8.50;;
22579;SDS011;11456;47.030;15.396;2023-12-29T11:16:38;24.77;;;7.57;;
22579;SDS011;11456;47.030;15.396;2023-12-29T11:19:09;18.55;;;7.90;;
22579;SDS011;11456;47.030;15.396;2023-12-29T11:21:39;18.02;;;8.43;;
22579;SDS011;11456;47.030;15.396;2023-12-29T11:24:10;16.05;;;7.63;;
22579;SDS011;11456;47.030;15.396;2023-12-29T11:26:46;14.90;;;7.57;;
22579;SDS011;11456;47.030;15.396;2023-12-29T11:29:16;16.88;;;7.78;;
22579;SDS011;11456;47.030;15.396;2023-12-29T11:31:43;22.65;;;7.25;;
22579;SDS011;11456;47.030;15.396;2023-12-29T11:34:20;15.38;;;7.25;;
22579;SDS011;11456;47.030;15.396;2023-12-29T11:36:55;14.25;;;8.32;;
22579;SDS011;11456;47.030;15.396;2023-12-29T11:39:48;21.42;;;8.15;;
22579;SDS011;11456;47.030;15.396;2023-12-29T11:42:32;14.18;;;7.30;;
22579;SDS011;11456;47.030;15.396;2023-12-29T11:45:38;18.02;;;7.03;;
22579;SDS011;11456;47.030;15.396;2023-12-29T11:48:02;15.30;;;7.85;;
22579;SDS011;11456;47.030;15.396;2023-12-29T11:50:34;18.63;;;6.95;;
22579;SDS011;11456;47.030;15.396;2023-12-29T11:53:04;16.98;;;7.10;;
22579;SDS011;11456;47.030;15.396;2023-12-29T11:55:35;13.25;;;7.22;;
22579;SDS011;11456;47.030;15.396;2023-12-29T11:58:03;13.02;;;7.43;;
22579;SDS011;11456;47.030;15.396;2023-12-29T12:00:44;17.42;;;7.25;;
22579;SDS011;11456;47.030;15.396;2023-12-29T12:03:14;26.23;;;8.43;;
22579;SDS011;11456;47.030;15.396;2023-12-29T12:05:49;23.13;;;8.07;;
22579;SDS011;11456;47.030;15.396;2023-12-29T12:08:35;17.38;;;8.07;;
22579;SDS011;11456;47.030;15.396;2023-12-29T12:14:06;11.57;;;7.20;;
22579;SDS011;11456;47.030;15.396;2023-12-29T12:19:08;19.52;;;6.97;;
22579;SDS011;11456;47.030;15.396;2023-12-29T12:21:36;15.05;;;7.60;;
22579;SDS011;11456;47.030;15.396;2023-12-29T12:24:04;18.95;;;7.70;;
22579;SDS011;11456;47.030;15.396;2023-12-29T12:26:31;14.38;;;6.47;;
22579;SDS011;11456;47.030;15.396;2023-12-29T12:28:58;11.85;;;7.38;;
22579;SDS011;11456;47.030;15.396;2023-12-29T12:31:25;21.15;;;7.30;;
22579;SDS011;11456;47.030;15.396;2023-12-29T12:33:56;12.57;;;7.15;;
22579;SDS011;11456;47.030;15.396;2023-12-29T12:36:23;14.55;;;6.63;;
22579;SDS011;11456;47.030;15.396;2023-12-29T12:38:53;22.98;;;8.70;;
22579;SDS011;11456;47.030;15.396;2023-12-29T12:41:20;19.83;;;7.10;;
22579;SDS011;11456;47.030;15.396;2023-12-29T12:43:57;16.88;;;7.25;;
22579;SDS011;11456;47.030;15.396;2023-12-29T12:46:52;22.02;;;8.05;;
22579;SDS011;11456;47.030;15.396;2023-12-29T12:49:24;27.48;;;7.63;;
22579;SDS011;11456;47.030;15.396;2023-12-29T12:51:51;23.15;;;7.70;;
22579;SDS011;11456;47.030;15.396;2023-12-29T12:54:20;24.20;;;7.07;;
22579;SDS011;11456;47.030;15.396;2023-12-29T12:56:46;16.02;;;7.18;;
22579;SDS011;11456;47.030;15.396;2023-12-29T12:59:14;17.92;;;6.80;;
22579;SDS011;11456;47.030;15.396;2023-12-29T13:01:42;19.55;;;7.45;;
22579;SDS011;11456;47.030;15.396;2023-12-29T13:04:10;13.45;;;7.05;;
22579;SDS011;11456;47.030;15.396;2023-12-29T13:06:42;18.15;;;6.43;;
22579;SDS011;11456;47.030;15.396;2023-12-29T13:09:16;13.13;;;7.00;;
22579;SDS011;11456;47.030;15.396;2023-12-29T13:11:46;14.43;;;6.60;;
22579;SDS011;11456;47.030;15.396;2023-12-29T13:14:22;17.15;;;7.10;;
22579;SDS011;11456;47.030;15.396;2023-12-29T13:16:49;14.13;;;6.53;;
22579;SDS011;11456;47.030;15.396;2023-12-29T13:19:20;13.30;;;7.03;;
22579;SDS011;11456;47.030;15.396;2023-12-29T13:21:51;16.95;;;7.38;;
22579;SDS011;11456;47.030;15.396;2023-12-29T13:24:23;14.82;;;7.10;;
22579;SDS011;11456;47.030;15.396;2023-12-29T13:26:57;11.65;;;6.88;;
22579;SDS011;11456;47.030;15.396;2023-12-29T13:29:28;10.75;;;6.30;;
22579;SDS011;11456;47.030;15.396;2023-12-29T13:31:58;16.90;;;6.75;;
22579;SDS011;11456;47.030;15.396;2023-12-29T13:37:22;13.60;;;7.07;;
22579;SDS011;11456;47.030;15.396;2023-12-29T13:42:39;23.58;;;9.32;;
22579;SDS011;11456;47.030;15.396;2023-12-29T13:45:10;32.10;;;12.40;;
22579;SDS011;11456;47.030;15.396;2023-12-29T13:47:38;32.17;;;13.93;;
22579;SDS011;11456;47.030;15.396;2023-12-29T13:50:05;34.35;;;13.73;;
22579;SDS011;11456;47.030;15.396;2023-12-29T13:52:36;23.17;;;11.00;;
22579;SDS011;11456;47.030;15.396;2023-12-29T13:55:04;23.45;;;10.13;;
22579;SDS011;11456;47.030;15.396;2023-12-29T13:57:31;23.33;;;9.00;;
22579;SDS011;11456;47.030;15.396;2023-12-29T14:03:05;20.73;;;9.35;;
22579;SDS011;11456;47.030;15.396;2023-12-29T14:05:39;17.15;;;9.00;;
22579;SDS011;11456;47.030;15.396;2023-12-29T14:08:17;18.20;;;9.93;;
22579;SDS011;11456;47.030;15.396;2023-12-29T14:10:49;20.23;;;9.90;;
22579;SDS011;11456;47.030;15.396;2023-12-29T14:13:16;18.25;;;9.23;;
22579;SDS011;11456;47.030;15.396;2023-12-29T14:15:44;21.75;;;9.57;;
22579;SDS011;11456;47.030;15.396;2023-12-29T14:20:59;16.30;;;9.00;;
22579;SDS011;11456;47.030;15.396;2023-12-29T14:23:27;18.83;;;8.68;;
22579;SDS011;11456;47.030;15.396;2023-12-29T14:26:01;18.92;;;7.82;;
22579;SDS011;11456;47.030;15.396;2023-12-29T14:28:29;27.05;;;9.65;;
22579;SDS011;11456;47.030;15.396;2023-12-29T14:31:02;23.80;;;9.38;;
22579;SDS011;11456;47.030;15.396;2023-12-29T14:33:29;18.45;;;10.05;;
22579;SDS011;11456;47.030;15.396;2023-12-29T14:35:56;27.10;;;12.55;;
22579;SDS011;11456;47.030;15.396;2023-12-29T14:38:23;21.20;;;9.63;;
22579;SDS011;11456;47.030;15.396;2023-12-29T14:40:51;18.65;;;10.35;;
22579;SDS011;11456;47.030;15.396;2023-12-29T14:43:17;18.77;;;9.43;;
22579;SDS011;11456;47.030;15.396;2023-12-29T14:45:44;17.17;;;9.05;;
22579;SDS011;11456;47.030;15.396;2023-12-29T14:48:11;25.35;;;9.65;;
22579;SDS011;11456;47.030;15.396;2023-12-29T14:50:38;25.70;;;10.02;;
22579;SDS011;11456;47.030;15.396;2023-12-29T14:53:05;21.38;;;10.27;;
22579;SDS011;11456;47.030;15.396;2023-12-29T14:55:31;24.45;;;9.55;;